sensor_id;sensor_type;location;lat;lon;timestamp;P1;durP1;ratioP1;P2;durP2;ratioP2
78542;SDS011;67836;52.430;14.446;2023-08-21T00:01:33;13.27;;;8.35;;
78542;SDS011;67836;52.430;14.446;2023-08-21T00:04:17;14.00;;;8.55;;
78542;SDS011;67836;52.430;14.446;2023-08-21T00:07:02;15.43;;;8.63;;
78542;SDS011;67836;52.430;14.446;2023-08-21T00:09:45;12.63;;;7.95;;
78542;SDS011;67836;52.430;14.446;2023-08-21T00:12:30;13.48;;;8.63;;
78542;SDS011;67836;52.430;14.446;2023-08-21T00:15:14;12.95;;;8.77;;
78542;SDS011;67836;52.430;14.446;2023-08-21T00:17:58;13.70;;;8.70;;
78542;SDS011;67836;52.430;14.446;2023-08-21T00:20:44;13.88;;;8.65;;
78542;SDS011;67836;52.430;14.446;2023-08-21T00:23:28;14.13;;;8.95;;
78542;SDS011;67836;52.430;14.446;2023-08-21T00:26:12;14.77;;;8.65;;
78542;SDS011;67836;52.430;14.446;2023-08-21T00:28:56;13.43;;;8.70;;
78542;SDS011;67836;52.430;14.446;2023-08-21T00:31:41;15.25;;;7.80;;
78542;SDS011;67836;52.430;14.446;2023-08-21T00:34:25;16.02;;;9.07;;
78542;SDS011;67836;52.430;14.446;2023-08-21T00:37:09;14.25;;;8.65;;
78542;SDS011;67836;52.430;14.446;2023-08-21T00:39:53;14.07;;;8.35;;
78542;SDS011;67836;52.430;14.446;2023-08-21T00:42:37;15.23;;;9.27;;
78542;SDS011;67836;52.430;14.446;2023-08-21T00:45:21;14.98;;;9.30;;
78542;SDS011;67836;52.430;14.446;2023-08-21T00:48:06;14.10;;;8.73;;
78542;SDS011;67836;52.430;14.446;2023-08-21T00:50:50;15.30;;;9.32;;
78542;SDS011;67836;52.430;14.446;2023-08-21T00:53:34;15.38;;;9.32;;
78542;SDS011;67836;52.430;14.446;2023-08-21T00:56:18;15.55;;;9.57;;
78542;SDS011;67836;52.430;14.446;2023-08-21T00:59:02;14.55;;;9.48;;
78542;SDS011;67836;52.430;14.446;2023-08-21T01:01:46;17.27;;;9.77;;
78542;SDS011;67836;52.430;14.446;2023-08-21T01:04:30;14.05;;;8.70;;
78542;SDS011;67836;52.430;14.446;2023-08-21T01:07:14;15.18;;;8.88;;
78542;SDS011;67836;52.430;14.446;2023-08-21T01:10:00;13.85;;;8.82;;
78542;SDS011;67836;52.430;14.446;2023-08-21T01:15:58;15.40;;;9.07;;
78542;SDS011;67836;52.430;14.446;2023-08-21T01:18:43;16.15;;;9.35;;
78542;SDS011;67836;52.430;14.446;2023-08-21T01:21:28;15.35;;;8.90;;
78542;SDS011;67836;52.430;14.446;2023-08-21T01:24:13;13.50;;;9.13;;
78542;SDS011;67836;52.430;14.446;2023-08-21T01:26:57;14.85;;;9.23;;
78542;SDS011;67836;52.430;14.446;2023-08-21T01:29:41;16.05;;;9.35;;
78542;SDS011;67836;52.430;14.446;2023-08-21T01:35:13;14.40;;;8.30;;
78542;SDS011;67836;52.430;14.446;2023-08-21T01:37:57;14.73;;;8.55;;
78542;SDS011;67836;52.430;14.446;2023-08-21T01:40:41;13.10;;;9.13;;
78542;SDS011;67836;52.430;14.446;2023-08-21T01:43:26;16.02;;;9.00;;
78542;SDS011;67836;52.430;14.446;2023-08-21T01:46:09;13.77;;;8.93;;
78542;SDS011;67836;52.430;14.446;2023-08-21T01:48:54;16.30;;;9.23;;
78542;SDS011;67836;52.430;14.446;2023-08-21T01:51:38;14.65;;;9.07;;
78542;SDS011;67836;52.430;14.446;2023-08-21T01:54:22;14.55;;;8.95;;
78542;SDS011;67836;52.430;14.446;2023-08-21T01:57:07;13.60;;;9.02;;
78542;SDS011;67836;52.430;14.446;2023-08-21T01:59:51;14.23;;;9.60;;
78542;SDS011;67836;52.430;14.446;2023-08-21T02:02:36;13.55;;;8.48;;
78542;SDS011;67836;52.430;14.446;2023-08-21T02:05:20;13.52;;;8.95;;
78542;SDS011;67836;52.430;14.446;2023-08-21T02:08:04;16.83;;;9.25;;
78542;SDS011;67836;52.430;14.446;2023-08-21T02:14:34;14.05;;;9.32;;
78542;SDS011;67836;52.430;14.446;2023-08-21T02:17:18;15.05;;;9.30;;
78542;SDS011;67836;52.430;14.446;2023-08-21T02:20:06;17.73;;;9.80;;
78542;SDS011;67836;52.430;14.446;2023-08-21T02:22:50;15.10;;;9.73;;
78542;SDS011;67836;52.430;14.446;2023-08-21T02:25:34;12.98;;;8.77;;
78542;SDS011;67836;52.430;14.446;2023-08-21T02:28:18;15.93;;;9.63;;
78542;SDS011;67836;52.430;14.446;2023-08-21T02:31:02;13.80;;;8.57;;
78542;SDS011;67836;52.430;14.446;2023-08-21T02:33:46;13.88;;;8.82;;
78542;SDS011;67836;52.430;14.446;2023-08-21T02:36:30;14.27;;;9.40;;
78542;SDS011;67836;52.430;14.446;2023-08-21T02:39:14;17.35;;;10.07;;
78542;SDS011;67836;52.430;14.446;2023-08-21T02:41:58;17.23;;;9.52;;
78542;SDS011;67836;52.430;14.446;2023-08-21T02:44:41;17.38;;;9.52;;
78542;SDS011;67836;52.430;14.446;2023-08-21T02:47:25;18.90;;;10.73;;
78542;SDS011;67836;52.430;14.446;2023-08-21T02:50:10;17.38;;;9.93;;
78542;SDS011;67836;52.430;14.446;2023-08-21T02:52:54;15.90;;;8.98;;
78542;SDS011;67836;52.430;14.446;2023-08-21T02:55:44;16.75;;;10.45;;
78542;SDS011;67836;52.430;14.446;2023-08-21T02:58:28;17.35;;;10.20;;
78542;SDS011;67836;52.430;14.446;2023-08-21T03:01:12;15.13;;;9.38;;
78542;SDS011;67836;52.430;14.446;2023-08-21T03:03:55;14.35;;;8.98;;
78542;SDS011;67836;52.430;14.446;2023-08-21T03:06:39;15.93;;;10.40;;
78542;SDS011;67836;52.430;14.446;2023-08-21T03:09:24;16.92;;;9.70;;
78542;SDS011;67836;52.430;14.446;2023-08-21T03:12:08;15.43;;;8.43;;
78542;SDS011;67836;52.430;14.446;2023-08-21T03:14:52;15.68;;;9.48;;
78542;SDS011;67836;52.430;14.446;2023-08-21T03:17:36;14.80;;;9.35;;
78542;SDS011;67836;52.430;14.446;2023-08-21T03:20:20;13.93;;;8.95;;
78542;SDS011;67836;52.430;14.446;2023-08-21T03:23:04;16.08;;;8.27;;
78542;SDS011;67836;52.430;14.446;2023-08-21T03:25:47;15.95;;;10.02;;
78542;SDS011;67836;52.430;14.446;2023-08-21T03:28:32;16.05;;;9.23;;
78542;SDS011;67836;52.430;14.446;2023-08-21T03:31:16;15.02;;;10.13;;
78542;SDS011;67836;52.430;14.446;2023-08-21T03:34:00;15.57;;;9.82;;
78542;SDS011;67836;52.430;14.446;2023-08-21T03:36:44;15.20;;;9.25;;
78542;SDS011;67836;52.430;14.446;2023-08-21T03:42:12;14.93;;;8.90;;
78542;SDS011;67836;52.430;14.446;2023-08-21T03:44:57;14.45;;;9.32;;
78542;SDS011;67836;52.430;14.446;2023-08-21T03:47:41;14.93;;;9.55;;
78542;SDS011;67836;52.430;14.446;2023-08-21T03:50:25;16.13;;;10.13;;
78542;SDS011;67836;52.430;14.446;2023-08-21T03:53:09;15.45;;;9.27;;
78542;SDS011;67836;52.430;14.446;2023-08-21T03:55:53;16.50;;;9.82;;
78542;SDS011;67836;52.430;14.446;2023-08-21T03:58:37;17.17;;;10.32;;
78542;SDS011;67836;52.430;14.446;2023-08-21T04:01:21;16.30;;;10.77;;
78542;SDS011;67836;52.430;14.446;2023-08-21T04:04:05;15.65;;;10.30;;
78542;SDS011;67836;52.430;14.446;2023-08-21T04:06:49;15.55;;;9.77;;
78542;SDS011;67836;52.430;14.446;2023-08-21T04:09:33;16.42;;;10.75;;
78542;SDS011;67836;52.430;14.446;2023-08-21T04:12:17;16.30;;;10.68;;
78542;SDS011;67836;52.430;14.446;2023-08-21T04:15:01;15.27;;;9.63;;
78542;SDS011;67836;52.430;14.446;2023-08-21T04:17:46;16.38;;;10.68;;
78542;SDS011;67836;52.430;14.446;2023-08-21T04:20:30;16.13;;;10.00;;
78542;SDS011;67836;52.430;14.446;2023-08-21T04:23:14;16.10;;;10.43;;
78542;SDS011;67836;52.430;14.446;2023-08-21T04:26:02;15.98;;;10.05;;
78542;SDS011;67836;52.430;14.446;2023-08-21T04:28:46;16.05;;;10.13;;
78542;SDS011;67836;52.430;14.446;2023-08-21T04:31:31;15.27;;;10.40;;
78542;SDS011;67836;52.430;14.446;2023-08-21T04:34:15;15.38;;;10.73;;
78542;SDS011;67836;52.430;14.446;2023-08-21T04:37:01;16.15;;;10.45;;
78542;SDS011;67836;52.430;14.446;2023-08-21T04:39:46;17.27;;;10.27;;
78542;SDS011;67836;52.430;14.446;2023-08-21T04:42:34;15.02;;;10.38;;
78542;SDS011;67836;52.430;14.446;2023-08-21T04:45:18;16.42;;;10.48;;
78542;SDS011;67836;52.430;14.446;2023-08-21T04:48:03;14.45;;;10.02;;
78542;SDS011;67836;52.430;14.446;2023-08-21T04:50:48;14.77;;;9.98;;
78542;SDS011;67836;52.430;14.446;2023-08-21T04:53:32;15.25;;;10.10;;
78542;SDS011;67836;52.430;14.446;2023-08-21T04:56:16;15.27;;;10.07;;
78542;SDS011;67836;52.430;14.446;2023-08-21T04:59:01;16.15;;;9.77;;
78542;SDS011;67836;52.430;14.446;2023-08-21T05:01:46;14.43;;;9.65;;
78542;SDS011;67836;52.430;14.446;2023-08-21T05:04:30;14.50;;;9.52;;
78542;SDS011;67836;52.430;14.446;2023-08-21T05:07:14;13.80;;;9.40;;
78542;SDS011;67836;52.430;14.446;2023-08-21T05:09:59;16.58;;;9.60;;
78542;SDS011;67836;52.430;14.446;2023-08-21T05:12:44;15.15;;;9.32;;
78542;SDS011;67836;52.430;14.446;2023-08-21T05:15:28;14.77;;;9.52;;
78542;SDS011;67836;52.430;14.446;2023-08-21T05:18:12;14.80;;;9.15;;
78542;SDS011;67836;52.430;14.446;2023-08-21T05:20:57;14.13;;;9.27;;
78542;SDS011;67836;52.430;14.446;2023-08-21T05:23:41;13.98;;;8.27;;
78542;SDS011;67836;52.430;14.446;2023-08-21T05:26:25;12.73;;;8.65;;
78542;SDS011;67836;52.430;14.446;2023-08-21T05:29:09;14.57;;;8.13;;
78542;SDS011;67836;52.430;14.446;2023-08-21T05:31:53;14.10;;;9.27;;
78542;SDS011;67836;52.430;14.446;2023-08-21T05:34:39;14.00;;;8.00;;
78542;SDS011;67836;52.430;14.446;2023-08-21T05:37:23;11.75;;;7.78;;
78542;SDS011;67836;52.430;14.446;2023-08-21T05:40:07;14.00;;;7.82;;
78542;SDS011;67836;52.430;14.446;2023-08-21T05:42:51;11.95;;;7.47;;
78542;SDS011;67836;52.430;14.446;2023-08-21T05:45:35;12.50;;;7.78;;
78542;SDS011;67836;52.430;14.446;2023-08-21T05:48:19;13.98;;;8.27;;
78542;SDS011;67836;52.430;14.446;2023-08-21T05:51:04;13.45;;;8.52;;
78542;SDS011;67836;52.430;14.446;2023-08-21T05:53:49;11.40;;;7.40;;
78542;SDS011;67836;52.430;14.446;2023-08-21T05:56:33;12.90;;;8.13;;
78542;SDS011;67836;52.430;14.446;2023-08-21T05:59:26;11.38;;;6.93;;
78542;SDS011;67836;52.430;14.446;2023-08-21T06:02:14;15.50;;;7.65;;
78542;SDS011;67836;52.430;14.446;2023-08-21T06:04:58;12.63;;;7.45;;
78542;SDS011;67836;52.430;14.446;2023-08-21T06:07:42;11.02;;;6.15;;
78542;SDS011;67836;52.430;14.446;2023-08-21T06:10:26;11.30;;;6.35;;
78542;SDS011;67836;52.430;14.446;2023-08-21T06:13:10;9.02;;;5.97;;
78542;SDS011;67836;52.430;14.446;2023-08-21T06:15:54;9.55;;;5.95;;
78542;SDS011;67836;52.430;14.446;2023-08-21T06:18:39;8.98;;;5.45;;
78542;SDS011;67836;52.430;14.446;2023-08-21T06:21:22;8.45;;;4.72;;
78542;SDS011;67836;52.430;14.446;2023-08-21T06:24:06;9.20;;;5.65;;
78542;SDS011;67836;52.430;14.446;2023-08-21T06:26:51;8.75;;;5.50;;
78542;SDS011;67836;52.430;14.446;2023-08-21T06:29:36;8.52;;;4.97;;
78542;SDS011;67836;52.430;14.446;2023-08-21T06:32:21;8.10;;;3.70;;
78542;SDS011;67836;52.430;14.446;2023-08-21T06:35:05;7.25;;;3.22;;
78542;SDS011;67836;52.430;14.446;2023-08-21T06:37:50;5.78;;;3.25;;
78542;SDS011;67836;52.430;14.446;2023-08-21T06:40:34;5.93;;;3.08;;
78542;SDS011;67836;52.430;14.446;2023-08-21T06:43:18;11.73;;;4.43;;
78542;SDS011;67836;52.430;14.446;2023-08-21T06:46:02;7.50;;;3.70;;
78542;SDS011;67836;52.430;14.446;2023-08-21T06:48:45;6.55;;;2.58;;
78542;SDS011;67836;52.430;14.446;2023-08-21T06:51:30;4.25;;;2.53;;
78542;SDS011;67836;52.430;14.446;2023-08-21T06:54:13;7.65;;;3.20;;
78542;SDS011;67836;52.430;14.446;2023-08-21T06:56:57;7.82;;;3.85;;
78542;SDS011;67836;52.430;14.446;2023-08-21T06:59:41;6.53;;;2.83;;
78542;SDS011;67836;52.430;14.446;2023-08-21T07:02:25;5.22;;;2.08;;
78542;SDS011;67836;52.430;14.446;2023-08-21T07:08:12;11.25;;;4.70;;
78542;SDS011;67836;52.430;14.446;2023-08-21T07:10:56;6.93;;;3.33;;
78542;SDS011;67836;52.430;14.446;2023-08-21T07:13:41;6.20;;;2.70;;
78542;SDS011;67836;52.430;14.446;2023-08-21T07:16:25;5.25;;;2.13;;
78542;SDS011;67836;52.430;14.446;2023-08-21T07:19:10;5.90;;;2.10;;
78542;SDS011;67836;52.430;14.446;2023-08-21T07:21:54;4.78;;;2.42;;
78542;SDS011;67836;52.430;14.446;2023-08-21T07:24:38;8.07;;;3.40;;
78542;SDS011;67836;52.430;14.446;2023-08-21T07:27:22;4.50;;;2.17;;
78542;SDS011;67836;52.430;14.446;2023-08-21T07:30:07;5.32;;;2.25;;
78542;SDS011;67836;52.430;14.446;2023-08-21T07:32:52;8.10;;;3.80;;
78542;SDS011;67836;52.430;14.446;2023-08-21T07:35:36;7.18;;;2.50;;
78542;SDS011;67836;52.430;14.446;2023-08-21T07:38:20;5.05;;;2.35;;
78542;SDS011;67836;52.430;14.446;2023-08-21T07:41:05;5.70;;;2.42;;
78542;SDS011;67836;52.430;14.446;2023-08-21T07:43:51;5.35;;;2.63;;
78542;SDS011;67836;52.430;14.446;2023-08-21T07:46:35;6.30;;;3.20;;
78542;SDS011;67836;52.430;14.446;2023-08-21T07:49:19;5.72;;;2.97;;
78542;SDS011;67836;52.430;14.446;2023-08-21T07:52:03;7.13;;;3.30;;
78542;SDS011;67836;52.430;14.446;2023-08-21T07:54:51;6.93;;;3.22;;
78542;SDS011;67836;52.430;14.446;2023-08-21T07:57:36;5.93;;;2.63;;
78542;SDS011;67836;52.430;14.446;2023-08-21T08:00:20;6.68;;;3.25;;
78542;SDS011;67836;52.430;14.446;2023-08-21T08:03:05;8.68;;;3.90;;
78542;SDS011;67836;52.430;14.446;2023-08-21T08:05:52;8.98;;;4.07;;
78542;SDS011;67836;52.430;14.446;2023-08-21T08:08:36;6.25;;;3.80;;
78542;SDS011;67836;52.430;14.446;2023-08-21T08:11:20;9.15;;;4.15;;
78542;SDS011;67836;52.430;14.446;2023-08-21T08:14:04;6.97;;;3.47;;
78542;SDS011;67836;52.430;14.446;2023-08-21T08:16:48;9.02;;;3.78;;
78542;SDS011;67836;52.430;14.446;2023-08-21T08:19:32;9.50;;;3.50;;
78542;SDS011;67836;52.430;14.446;2023-08-21T08:22:16;5.82;;;3.47;;
78542;SDS011;67836;52.430;14.446;2023-08-21T08:25:00;6.95;;;3.22;;
78542;SDS011;67836;52.430;14.446;2023-08-21T08:27:45;5.50;;;3.10;;
78542;SDS011;67836;52.430;14.446;2023-08-21T08:30:29;7.63;;;3.45;;
78542;SDS011;67836;52.430;14.446;2023-08-21T08:33:13;6.97;;;3.70;;
78542;SDS011;67836;52.430;14.446;2023-08-21T08:35:57;5.07;;;2.55;;
78542;SDS011;67836;52.430;14.446;2023-08-21T08:38:41;7.65;;;4.10;;
78542;SDS011;67836;52.430;14.446;2023-08-21T08:41:33;5.70;;;2.67;;
78542;SDS011;67836;52.430;14.446;2023-08-21T08:44:22;6.63;;;3.00;;
78542;SDS011;67836;52.430;14.446;2023-08-21T08:47:10;4.80;;;2.38;;
78542;SDS011;67836;52.430;14.446;2023-08-21T08:49:54;6.63;;;3.40;;
78542;SDS011;67836;52.430;14.446;2023-08-21T08:52:39;8.07;;;4.35;;
78542;SDS011;67836;52.430;14.446;2023-08-21T08:55:23;7.15;;;3.42;;
78542;SDS011;67836;52.430;14.446;2023-08-21T09:02:07;8.88;;;3.95;;
78542;SDS011;67836;52.430;14.446;2023-08-21T09:04:51;7.78;;;3.90;;
78542;SDS011;67836;52.430;14.446;2023-08-21T09:07:35;5.80;;;2.85;;
78542;SDS011;67836;52.430;14.446;2023-08-21T09:10:19;7.63;;;3.92;;
78542;SDS011;67836;52.430;14.446;2023-08-21T09:13:16;7.40;;;3.95;;
78542;SDS011;67836;52.430;14.446;2023-08-21T09:16:02;7.63;;;4.00;;
78542;SDS011;67836;52.430;14.446;2023-08-21T09:18:47;6.80;;;3.42;;
78542;SDS011;67836;52.430;14.446;2023-08-21T09:21:31;7.97;;;3.80;;
78542;SDS011;67836;52.430;14.446;2023-08-21T09:24:15;7.35;;;3.88;;
78542;SDS011;67836;52.430;14.446;2023-08-21T09:26:59;8.48;;;3.90;;
78542;SDS011;67836;52.430;14.446;2023-08-21T09:29:45;5.65;;;3.15;;
78542;SDS011;67836;52.430;14.446;2023-08-21T09:32:29;7.18;;;4.00;;
78542;SDS011;67836;52.430;14.446;2023-08-21T09:35:14;7.88;;;4.60;;
78542;SDS011;67836;52.430;14.446;2023-08-21T09:37:58;8.50;;;4.40;;
78542;SDS011;67836;52.430;14.446;2023-08-21T09:40:43;7.43;;;3.72;;
78542;SDS011;67836;52.430;14.446;2023-08-21T09:43:40;5.77;;;2.80;;
78542;SDS011;67836;52.430;14.446;2023-08-21T09:46:25;5.70;;;3.15;;
78542;SDS011;67836;52.430;14.446;2023-08-21T09:49:09;9.10;;;5.32;;
78542;SDS011;67836;52.430;14.446;2023-08-21T09:51:54;7.97;;;4.72;;
78542;SDS011;67836;52.430;14.446;2023-08-21T09:54:38;7.47;;;4.50;;
78542;SDS011;67836;52.430;14.446;2023-08-21T09:57:23;9.32;;;4.75;;
78542;SDS011;67836;52.430;14.446;2023-08-21T10:00:07;7.82;;;4.88;;
78542;SDS011;67836;52.430;14.446;2023-08-21T10:02:59;7.55;;;4.05;;
78542;SDS011;67836;52.430;14.446;2023-08-21T10:05:45;10.18;;;5.03;;
78542;SDS011;67836;52.430;14.446;2023-08-21T10:08:31;9.88;;;5.22;;
78542;SDS011;67836;52.430;14.446;2023-08-21T10:11:20;9.02;;;4.50;;
78542;SDS011;67836;52.430;14.446;2023-08-21T10:14:05;8.45;;;5.18;;
78542;SDS011;67836;52.430;14.446;2023-08-21T10:16:52;7.53;;;4.55;;
78542;SDS011;67836;52.430;14.446;2023-08-21T10:19:36;9.73;;;5.60;;
78542;SDS011;67836;52.430;14.446;2023-08-21T10:22:42;8.20;;;4.78;;
78542;SDS011;67836;52.430;14.446;2023-08-21T10:25:27;7.55;;;5.20;;
78542;SDS011;67836;52.430;14.446;2023-08-21T10:28:11;7.95;;;4.10;;
78542;SDS011;67836;52.430;14.446;2023-08-21T10:30:55;8.70;;;4.70;;
78542;SDS011;67836;52.430;14.446;2023-08-21T10:33:46;7.90;;;3.28;;
78542;SDS011;67836;52.430;14.446;2023-08-21T10:39:56;9.90;;;5.30;;
78542;SDS011;67836;52.430;14.446;2023-08-21T10:42:40;7.05;;;3.58;;
78542;SDS011;67836;52.430;14.446;2023-08-21T10:45:26;9.20;;;5.40;;
78542;SDS011;67836;52.430;14.446;2023-08-21T10:48:10;9.32;;;5.32;;
78542;SDS011;67836;52.430;14.446;2023-08-21T10:50:54;7.78;;;4.15;;
78542;SDS011;67836;52.430;14.446;2023-08-21T10:53:38;8.18;;;5.20;;
78542;SDS011;67836;52.430;14.446;2023-08-21T10:56:25;9.98;;;5.55;;
78542;SDS011;67836;52.430;14.446;2023-08-21T10:59:10;9.60;;;5.30;;
78542;SDS011;67836;52.430;14.446;2023-08-21T11:01:54;9.30;;;4.63;;
78542;SDS011;67836;52.430;14.446;2023-08-21T11:04:42;6.45;;;3.65;;
78542;SDS011;67836;52.430;14.446;2023-08-21T11:07:28;8.38;;;4.50;;
78542;SDS011;67836;52.430;14.446;2023-08-21T11:10:15;7.40;;;3.92;;
78542;SDS011;67836;52.430;14.446;2023-08-21T11:13:00;8.75;;;4.40;;
78542;SDS011;67836;52.430;14.446;2023-08-21T11:15:45;4.55;;;2.20;;
78542;SDS011;67836;52.430;14.446;2023-08-21T11:18:36;8.50;;;3.70;;
78542;SDS011;67836;52.430;14.446;2023-08-21T11:21:24;5.68;;;3.40;;
78542;SDS011;67836;52.430;14.446;2023-08-21T11:24:09;4.47;;;2.50;;
78542;SDS011;67836;52.430;14.446;2023-08-21T11:26:53;5.50;;;2.60;;
78542;SDS011;67836;52.430;14.446;2023-08-21T11:32:31;6.10;;;3.38;;
78542;SDS011;67836;52.430;14.446;2023-08-21T11:35:15;5.45;;;2.80;;
78542;SDS011;67836;52.430;14.446;2023-08-21T11:37:59;6.32;;;2.47;;
78542;SDS011;67836;52.430;14.446;2023-08-21T11:40:50;6.57;;;2.50;;
78542;SDS011;67836;52.430;14.446;2023-08-21T11:43:39;4.20;;;1.90;;
78542;SDS011;67836;52.430;14.446;2023-08-21T11:46:24;2.40;;;1.70;;
78542;SDS011;67836;52.430;14.446;2023-08-21T11:49:09;2.70;;;1.55;;
78542;SDS011;67836;52.430;14.446;2023-08-21T11:51:53;5.97;;;2.50;;
78542;SDS011;67836;52.430;14.446;2023-08-21T11:54:38;4.70;;;2.38;;
78542;SDS011;67836;52.430;14.446;2023-08-21T11:57:24;4.20;;;1.88;;
78542;SDS011;67836;52.430;14.446;2023-08-21T12:00:08;2.67;;;1.13;;
78542;SDS011;67836;52.430;14.446;2023-08-21T12:02:58;1.83;;;0.90;;
78542;SDS011;67836;52.430;14.446;2023-08-21T12:05:43;3.15;;;1.40;;
78542;SDS011;67836;52.430;14.446;2023-08-21T12:08:27;2.42;;;1.27;;
78542;SDS011;67836;52.430;14.446;2023-08-21T12:11:12;3.10;;;1.23;;
78542;SDS011;67836;52.430;14.446;2023-08-21T12:13:56;3.72;;;1.48;;
78542;SDS011;67836;52.430;14.446;2023-08-21T12:16:40;3.67;;;1.50;;
78542;SDS011;67836;52.430;14.446;2023-08-21T12:19:24;4.10;;;1.48;;
78542;SDS011;67836;52.430;14.446;2023-08-21T12:22:08;3.55;;;1.38;;
78542;SDS011;67836;52.430;14.446;2023-08-21T12:24:52;3.50;;;1.38;;
78542;SDS011;67836;52.430;14.446;2023-08-21T12:27:36;3.53;;;1.30;;
78542;SDS011;67836;52.430;14.446;2023-08-21T12:30:20;4.80;;;1.50;;
78542;SDS011;67836;52.430;14.446;2023-08-21T12:33:05;3.13;;;1.30;;
78542;SDS011;67836;52.430;14.446;2023-08-21T12:35:49;3.72;;;1.30;;
78542;SDS011;67836;52.430;14.446;2023-08-21T12:45:56;3.78;;;0.93;;
78542;SDS011;67836;52.430;14.446;2023-08-21T12:48:40;2.40;;;1.20;;
78542;SDS011;67836;52.430;14.446;2023-08-21T12:51:25;2.40;;;1.15;;
78542;SDS011;67836;52.430;14.446;2023-08-21T12:54:09;4.68;;;1.63;;
78542;SDS011;67836;52.430;14.446;2023-08-21T12:56:53;3.95;;;1.40;;
78542;SDS011;67836;52.430;14.446;2023-08-21T12:59:37;1.92;;;1.00;;
78542;SDS011;67836;52.430;14.446;2023-08-21T13:06:08;3.72;;;1.30;;
78542;SDS011;67836;52.430;14.446;2023-08-21T13:08:52;2.50;;;1.10;;
78542;SDS011;67836;52.430;14.446;2023-08-21T13:11:36;2.88;;;1.05;;
78542;SDS011;67836;52.430;14.446;2023-08-21T13:14:20;3.40;;;1.48;;
78542;SDS011;67836;52.430;14.446;2023-08-21T13:17:05;3.88;;;1.10;;
78542;SDS011;67836;52.430;14.446;2023-08-21T13:19:49;2.72;;;1.13;;
78542;SDS011;67836;52.430;14.446;2023-08-21T13:22:49;3.15;;;1.38;;
78542;SDS011;67836;52.430;14.446;2023-08-21T13:25:34;3.35;;;1.10;;
78542;SDS011;67836;52.430;14.446;2023-08-21T13:28:18;3.53;;;1.20;;
78542;SDS011;67836;52.430;14.446;2023-08-21T13:31:03;3.03;;;1.20;;
78542;SDS011;67836;52.430;14.446;2023-08-21T13:33:47;3.55;;;1.10;;
78542;SDS011;67836;52.430;14.446;2023-08-21T13:36:32;2.40;;;1.02;;
78542;SDS011;67836;52.430;14.446;2023-08-21T13:39:17;2.67;;;0.90;;
78542;SDS011;67836;52.430;14.446;2023-08-21T13:42:01;2.15;;;1.08;;
78542;SDS011;67836;52.430;14.446;2023-08-21T13:44:45;3.40;;;1.10;;
78542;SDS011;67836;52.430;14.446;2023-08-21T13:47:29;3.35;;;1.33;;
78542;SDS011;67836;52.430;14.446;2023-08-21T13:50:13;4.07;;;1.48;;
78542;SDS011;67836;52.430;14.446;2023-08-21T13:52:58;4.72;;;1.20;;
78542;SDS011;67836;52.430;14.446;2023-08-21T13:55:42;4.88;;;1.65;;
78542;SDS011;67836;52.430;14.446;2023-08-21T13:58:26;2.72;;;1.10;;
78542;SDS011;67836;52.430;14.446;2023-08-21T14:01:10;4.30;;;1.33;;
78542;SDS011;67836;52.430;14.446;2023-08-21T14:03:54;3.17;;;1.08;;
78542;SDS011;67836;52.430;14.446;2023-08-21T14:06:39;2.05;;;1.10;;
78542;SDS011;67836;52.430;14.446;2023-08-21T14:09:23;2.45;;;0.90;;
78542;SDS011;67836;52.430;14.446;2023-08-21T14:12:07;4.75;;;1.40;;
78542;SDS011;67836;52.430;14.446;2023-08-21T14:14:51;2.85;;;1.00;;
78542;SDS011;67836;52.430;14.446;2023-08-21T14:17:35;2.95;;;1.20;;
78542;SDS011;67836;52.430;14.446;2023-08-21T14:24:06;3.42;;;1.20;;
78542;SDS011;67836;52.430;14.446;2023-08-21T14:26:51;1.48;;;1.00;;
78542;SDS011;67836;52.430;14.446;2023-08-21T14:29:53;3.80;;;1.20;;
78542;SDS011;67836;52.430;14.446;2023-08-21T14:32:37;3.65;;;1.38;;
78542;SDS011;67836;52.430;14.446;2023-08-21T14:35:21;2.05;;;0.95;;
78542;SDS011;67836;52.430;14.446;2023-08-21T14:38:05;3.88;;;1.40;;
78542;SDS011;67836;52.430;14.446;2023-08-21T14:40:49;3.15;;;1.17;;
78542;SDS011;67836;52.430;14.446;2023-08-21T14:43:35;2.92;;;0.88;;
78542;SDS011;67836;52.430;14.446;2023-08-21T14:46:19;3.15;;;1.33;;
78542;SDS011;67836;52.430;14.446;2023-08-21T14:49:04;3.80;;;1.02;;
78542;SDS011;67836;52.430;14.446;2023-08-21T14:51:47;4.10;;;1.30;;
78542;SDS011;67836;52.430;14.446;2023-08-21T14:54:34;2.97;;;1.20;;
78542;SDS011;67836;52.430;14.446;2023-08-21T14:57:19;5.05;;;1.10;;
78542;SDS011;67836;52.430;14.446;2023-08-21T15:00:06;2.15;;;1.08;;
78542;SDS011;67836;52.430;14.446;2023-08-21T15:02:52;3.95;;;1.10;;
78542;SDS011;67836;52.430;14.446;2023-08-21T15:05:36;2.55;;;1.00;;
78542;SDS011;67836;52.430;14.446;2023-08-21T15:08:20;2.40;;;0.93;;
78542;SDS011;67836;52.430;14.446;2023-08-21T15:11:04;4.32;;;1.10;;
78542;SDS011;67836;52.430;14.446;2023-08-21T15:13:48;2.60;;;1.15;;
78542;SDS011;67836;52.430;14.446;2023-08-21T15:16:32;2.90;;;1.20;;
78542;SDS011;67836;52.430;14.446;2023-08-21T15:19:16;4.93;;;1.30;;
78542;SDS011;67836;52.430;14.446;2023-08-21T15:22:00;2.85;;;1.08;;
78542;SDS011;67836;52.430;14.446;2023-08-21T15:24:45;4.40;;;1.20;;
78542;SDS011;67836;52.430;14.446;2023-08-21T15:27:28;3.45;;;1.02;;
78542;SDS011;67836;52.430;14.446;2023-08-21T15:30:13;3.33;;;1.20;;
78542;SDS011;67836;52.430;14.446;2023-08-21T15:32:57;2.58;;;0.90;;
78542;SDS011;67836;52.430;14.446;2023-08-21T15:35:41;2.47;;;1.23;;
78542;SDS011;67836;52.430;14.446;2023-08-21T15:38:25;4.28;;;1.20;;
78542;SDS011;67836;52.430;14.446;2023-08-21T15:41:09;2.70;;;1.00;;
78542;SDS011;67836;52.430;14.446;2023-08-21T15:43:53;3.72;;;0.82;;
78542;SDS011;67836;52.430;14.446;2023-08-21T15:46:37;1.42;;;0.80;;
78542;SDS011;67836;52.430;14.446;2023-08-21T15:49:21;5.07;;;0.90;;
78542;SDS011;67836;52.430;14.446;2023-08-21T15:52:05;3.45;;;1.00;;
78542;SDS011;67836;52.430;14.446;2023-08-21T15:54:51;2.45;;;0.90;;
78542;SDS011;67836;52.430;14.446;2023-08-21T15:57:35;2.40;;;0.90;;
78542;SDS011;67836;52.430;14.446;2023-08-21T16:00:19;2.97;;;0.73;;
78542;SDS011;67836;52.430;14.446;2023-08-21T16:03:06;2.72;;;0.90;;
78542;SDS011;67836;52.430;14.446;2023-08-21T16:05:50;3.03;;;1.00;;
78542;SDS011;67836;52.430;14.446;2023-08-21T16:08:34;1.67;;;0.85;;
78542;SDS011;67836;52.430;14.446;2023-08-21T16:11:18;3.60;;;1.08;;
78542;SDS011;67836;52.430;14.446;2023-08-21T16:14:03;2.92;;;0.80;;
78542;SDS011;67836;52.430;14.446;2023-08-21T16:16:51;2.47;;;0.90;;
78542;SDS011;67836;52.430;14.446;2023-08-21T16:19:35;2.60;;;1.10;;
78542;SDS011;67836;52.430;14.446;2023-08-21T16:22:20;4.18;;;1.40;;
78542;SDS011;67836;52.430;14.446;2023-08-21T16:25:04;5.15;;;1.00;;
78542;SDS011;67836;52.430;14.446;2023-08-21T16:27:48;3.00;;;1.20;;
78542;SDS011;67836;52.430;14.446;2023-08-21T16:30:33;3.13;;;1.00;;
78542;SDS011;67836;52.430;14.446;2023-08-21T16:33:16;3.75;;;1.30;;
78542;SDS011;67836;52.430;14.446;2023-08-21T16:36:01;4.20;;;1.17;;
78542;SDS011;67836;52.430;14.446;2023-08-21T16:38:47;2.25;;;1.00;;
78542;SDS011;67836;52.430;14.446;2023-08-21T16:41:31;2.38;;;1.17;;
78542;SDS011;67836;52.430;14.446;2023-08-21T16:44:15;4.95;;;1.00;;
78542;SDS011;67836;52.430;14.446;2023-08-21T16:47:01;4.15;;;1.10;;
78542;SDS011;67836;52.430;14.446;2023-08-21T16:49:45;2.45;;;1.00;;
78542;SDS011;67836;52.430;14.446;2023-08-21T16:52:29;1.38;;;0.88;;